Time;durP1;ratioP1;P1;durP2;ratioP2;P2;SDS_P1;SDS_P2;PMS_P1;PMS_P2;Temp;Humidity;BMP_temperature;BMP_pressure;BME280_temperature;BME280_humidity;BME280_pressure;Samples;Min_cycle;Max_cycle;Signal;HPM_P1;HPM_P2
2021/06/27 00:01:24;;;;;;;4.80;3.03;;;;;;;;;;5075246;28;20063;-47
2021/06/27 00:03:52;;;;;;;4.47;3.05;;;;;;;;;;5075258;28;20028;-47
2021/06/27 00:06:19;;;;;;;5.72;2.97;;;;;;;;;;5075668;28;20329;-47
2021/06/27 00:08:45;;;;;;;5.72;3.22;;;;;;;;;;5075485;28;20445;-47
2021/06/27 00:11:11;;;;;;;4.70;3.00;;;;;;;;;;5074608;28;20090;-47
2021/06/27 00:13:39;;;;;;;4.50;3.13;;;;;;;;;;5075510;28;20025;-47
2021/06/27 00:16:05;;;;;;;5.55;2.92;;;;;;;;;;5075322;28;20112;-48
2021/06/27 00:18:32;;;;;;;8.93;3.53;;;;;;;;;;5075019;28;20128;-47
2021/06/27 00:20:59;;;;;;;6.65;3.13;;;;;;;;;;5074091;28;20469;-47
2021/06/27 00:23:29;;;;;;;4.78;3.05;;;;;;;;;;5075524;28;20029;-47
2021/06/27 00:25:55;;;;;;;7.30;3.08;;;;;;;;;;5075263;28;20333;-47
2021/06/27 00:28:21;;;;;;;6.57;2.60;;;;;;;;;;5075027;28;20364;-47
2021/06/27 00:30:47;;;;;;;5.10;2.83;;;;;;;;;;5073937;28;20470;-47
2021/06/27 00:33:13;;;;;;;5.40;2.67;;;;;;;;;;5075232;28;20023;-47
2021/06/27 00:35:40;;;;;;;5.45;3.38;;;;;;;;;;5075147;28;20099;-47
2021/06/27 00:38:06;;;;;;;9.00;3.03;;;;;;;;;;5074777;28;20040;-47
2021/06/27 00:40:33;;;;;;;5.43;2.92;;;;;;;;;;5074533;28;20028;-47
2021/06/27 00:42:59;;;;;;;8.38;3.38;;;;;;;;;;5074614;28;20150;-47
2021/06/27 00:45:27;;;;;;;7.20;2.80;;;;;;;;;;5074685;28;20069;-46
2021/06/27 00:47:54;;;;;;;4.38;3.13;;;;;;;;;;5074520;28;20456;-47
2021/06/27 00:50:24;;;;;;;5.88;2.92;;;;;;;;;;5074497;28;20027;-47
2021/06/27 00:52:50;;;;;;;;;;;;;;;;;;5075098;28;20025;-47
2021/06/27 00:55:17;;;;;;;3.78;3.03;;;;;;;;;;5074979;28;19905;-47
2021/06/27 00:57:44;;;;;;;4.43;3.10;;;;;;;;;;5074352;28;20094;-47
2021/06/27 01:00:12;;;;;;;6.03;3.15;;;;;;;;;;5073904;28;20054;-47
2021/06/27 01:02:38;;;;;;;5.57;3.85;;;;;;;;;;5074613;28;20028;-47
2021/06/27 01:05:07;;;;;;;4.75;3.10;;;;;;;;;;5074568;28;20033;-47
2021/06/27 01:07:33;;;;;;;4.15;2.80;;;;;;;;;;5074664;28;20107;-47
2021/06/27 01:09:59;;;;;;;13.95;3.15;;;;;;;;;;5074271;28;20131;-47
2021/06/27 01:12:25;;;;;;;4.72;2.95;;;;;;;;;;5073412;28;20031;-47
2021/06/27 01:14:51;;;;;;;12.02;3.08;;;;;;;;;;5074482;28;20024;-47
2021/06/27 01:17:17;;;;;;;7.18;2.97;;;;;;;;;;5074646;28;20052;-47
2021/06/27 01:19:43;;;;;;;3.70;2.67;;;;;;;;;;5073797;28;20086;-47
2021/06/27 01:22:09;;;;;;;4.80;2.92;;;;;;;;;;5072983;28;20070;-47
2021/06/27 01:24:35;;;;;;;4.55;2.63;;;;;;;;;;5074157;28;20109;-47
2021/06/27 01:27:01;;;;;;;3.95;2.97;;;;;;;;;;5073816;28;20031;-47
2021/06/27 01:29:27;;;;;;;4.97;3.30;;;;;;;;;;5073943;28;20032;-47
2021/06/27 01:31:53;;;;;;;5.00;3.13;;;;;;;;;;5073103;28;20021;-47
2021/06/27 01:34:20;;;;;;;8.65;2.90;;;;;;;;;;5073370;28;20119;-47
2021/06/27 01:36:46;;;;;;;7.70;3.30;;;;;;;;;;5074063;28;20063;-48
2021/06/27 01:39:12;;;;;;;3.97;2.67;;;;;;;;;;5073932;28;20060;-47
2021/06/27 01:41:38;;;;;;;5.20;2.63;;;;;;;;;;5072620;28;20036;-47
2021/06/27 01:44:04;;;;;;;5.30;3.33;;;;;;;;;;5073762;28;20024;-47
2021/06/27 01:46:30;;;;;;;5.40;3.30;;;;;;;;;;5073979;28;20025;-47
2021/06/27 01:48:56;;;;;;;3.75;2.83;;;;;;;;;;5073790;28;20155;-47
2021/06/27 01:51:22;;;;;;;6.97;3.10;;;;;;;;;;5072524;28;20462;-47
2021/06/27 01:53:48;;;;;;;4.53;3.22;;;;;;;;;;5073538;28;20063;-47
2021/06/27 01:56:14;;;;;;;6.20;3.35;;;;;;;;;;5073218;28;20056;-48
2021/06/27 01:58:50;;;;;;;5.10;3.20;;;;;;;;;;5073334;28;20089;-47
2021/06/27 02:01:25;;;;;;;5.70;3.13;;;;;;;;;;5072904;28;20029;-47
2021/06/27 02:03:51;;;;;;;7.38;3.33;;;;;;;;;;5073094;28;20447;-47
2021/06/27 02:06:21;;;;;;;4.43;3.05;;;;;;;;;;5073309;28;20158;-47
2021/06/27 02:08:48;;;;;;;4.78;3.35;;;;;;;;;;5072781;28;20412;-47
2021/06/27 02:11:15;;;;;;;10.90;3.15;;;;;;;;;;5072796;28;20029;-47
2021/06/27 02:13:41;;;;;;;3.83;2.75;;;;;;;;;;5069011;28;20103;-47
2021/06/27 02:16:08;;;;;;;7.25;3.15;;;;;;;;;;5073012;28;20420;-46
2021/06/27 02:18:35;;;;;;;8.15;3.00;;;;;;;;;;5073166;28;20451;-47
2021/06/27 02:21:04;;;;;;;4.97;3.22;;;;;;;;;;5072241;28;20043;-47
2021/06/27 02:23:30;;;;;;;4.68;2.97;;;;;;;;;;5073044;28;20438;-47
2021/06/27 02:25:57;;;;;;;7.22;3.50;;;;;;;;;;5072654;28;20060;-46
2021/06/27 02:28:23;;;;;;;4.60;3.28;;;;;;;;;;5073341;28;20143;-47
2021/06/27 02:30:50;;;;;;;5.47;3.85;;;;;;;;;;5072534;28;20054;-47
2021/06/27 02:33:16;;;;;;;7.13;2.90;;;;;;;;;;5072981;28;20029;-47
2021/06/27 02:35:42;;;;;;;3.97;3.20;;;;;;;;;;5072834;28;20464;-47
2021/06/27 02:38:08;;;;;;;5.85;3.42;;;;;;;;;;5072820;28;20090;-47
2021/06/27 02:40:42;;;;;;;5.93;3.15;;;;;;;;;;5071665;28;20404;-47
2021/06/27 02:43:08;;;;;;;5.32;2.75;;;;;;;;;;5068560;28;20029;-47
2021/06/27 02:45:34;;;;;;;9.57;4.00;;;;;;;;;;5073213;28;20035;-47
2021/06/27 02:48:00;;;;;;;6.63;3.65;;;;;;;;;;5072211;28;20032;-47
2021/06/27 02:50:27;;;;;;;4.05;2.88;;;;;;;;;;5072513;28;20100;-47
2021/06/27 02:52:53;;;;;;;11.45;3.13;;;;;;;;;;5072756;28;20070;-47
2021/06/27 02:55:19;;;;;;;4.38;3.47;;;;;;;;;;5072880;28;20020;-47
2021/06/27 02:57:45;;;;;;;5.72;3.63;;;;;;;;;;5072225;28;20101;-47
2021/06/27 03:00:16;;;;;;;5.97;3.22;;;;;;;;;;5072156;28;20456;-47
2021/06/27 03:02:42;;;;;;;6.75;3.63;;;;;;;;;;5072633;28;20081;-47
2021/06/27 03:05:08;;;;;;;6.93;3.70;;;;;;;;;;5073050;28;20024;-48
2021/06/27 03:07:34;;;;;;;4.32;3.20;;;;;;;;;;5072404;28;20024;-47
2021/06/27 03:10:00;;;;;;;6.70;3.72;;;;;;;;;;5072500;28;20031;-47
2021/06/27 03:12:26;;;;;;;4.63;3.13;;;;;;;;;;5071509;28;20107;-47
2021/06/27 03:14:52;;;;;;;5.80;3.63;;;;;;;;;;5072841;28;20112;-47
2021/06/27 03:17:18;;;;;;;5.07;3.13;;;;;;;;;;5072617;28;20414;-47
2021/06/27 03:19:44;;;;;;;5.18;3.47;;;;;;;;;;5072632;28;20033;-47
2021/06/27 03:22:10;;;;;;;7.35;3.60;;;;;;;;;;5071559;28;20043;-47
2021/06/27 03:24:36;;;;;;;5.63;3.10;;;;;;;;;;5072100;28;20029;-47
2021/06/27 03:27:02;;;;;;;5.07;3.65;;;;;;;;;;5072553;28;20070;-47
2021/06/27 03:29:28;;;;;;;3.67;2.72;;;;;;;;;;5072634;28;20028;-47
2021/06/27 03:31:54;;;;;;;5.90;2.83;;;;;;;;;;5071686;28;20038;-47
2021/06/27 03:34:21;;;;;;;4.55;3.22;;;;;;;;;;5072591;28;20523;-47
2021/06/27 03:36:47;;;;;;;7.47;3.00;;;;;;;;;;5072149;28;20052;-47
2021/06/27 03:39:15;;;;;;;4.65;3.03;;;;;;;;;;5072228;28;20094;-47
2021/06/27 03:41:54;;;;;;;5.03;3.13;;;;;;;;;;5071707;28;20025;-47
2021/06/27 03:44:24;;;;;;;6.55;3.40;;;;;;;;;;5072110;28;20379;-47
2021/06/27 03:46:50;;;;;;;5.93;3.30;;;;;;;;;;5074778;28;20336;-47
2021/06/27 03:49:16;;;;;;;3.83;2.80;;;;;;;;;;5076255;28;20032;-47
2021/06/27 03:51:43;;;;;;;4.07;3.30;;;;;;;;;;5074984;28;20058;-47
2021/06/27 03:54:09;;;;;;;5.13;3.35;;;;;;;;;;5075906;28;20115;-47
2021/06/27 03:56:35;;;;;;;4.95;4.20;;;;;;;;;;5076207;28;20024;-47
2021/06/27 03:59:01;;;;;;;5.25;3.47;;;;;;;;;;5075512;28;20037;-47
2021/06/27 04:01:27;;;;;;;7.15;4.03;;;;;;;;;;5075326;28;20024;-47
2021/06/27 04:03:53;;;;;;;8.50;3.13;;;;;;;;;;5076231;28;20029;-47
2021/06/27 04:06:19;;;;;;;4.95;3.20;;;;;;;;;;5075747;28;20466;-47
2021/06/27 04:08:45;;;;;;;5.72;3.25;;;;;;;;;;5075512;28;20021;-47
2021/06/27 04:11:11;;;;;;;5.78;3.47;;;;;;;;;;5075179;28;20021;-47
2021/06/27 04:13:37;;;;;;;4.75;3.05;;;;;;;;;;5075506;28;20107;-47
2021/06/27 04:16:04;;;;;;;5.63;3.58;;;;;;;;;;5075412;28;20382;-47
2021/06/27 04:18:31;;;;;;;10.52;3.70;;;;;;;;;;5075340;28;20525;-47
2021/06/27 04:20:57;;;;;;;5.40;3.33;;;;;;;;;;5074190;28;20037;-47
2021/06/27 04:23:24;;;;;;;4.45;3.47;;;;;;;;;;5075597;28;20037;-47
2021/06/27 04:25:50;;;;;;;6.90;3.85;;;;;;;;;;5075596;28;20025;-47
2021/06/27 04:28:16;;;;;;;8.88;3.95;;;;;;;;;;5075416;28;20095;-47
2021/06/27 04:30:42;;;;;;;4.78;3.30;;;;;;;;;;5074818;28;20021;-47
2021/06/27 04:33:09;;;;;;;4.85;3.08;;;;;;;;;;5074867;28;20021;-47
2021/06/27 04:35:36;;;;;;;4.57;3.20;;;;;;;;;;5074980;28;20036;-47
2021/06/27 04:38:06;;;;;;;6.10;3.47;;;;;;;;;;5074610;28;20042;-48
2021/06/27 04:40:33;;;;;;;7.20;3.40;;;;;;;;;;5074686;28;20058;-47
2021/06/27 04:42:59;;;;;;;6.82;2.88;;;;;;;;;;5074721;28;20413;-48
2021/06/27 04:45:25;;;;;;;6.30;2.92;;;;;;;;;;5075134;28;20028;-47
2021/06/27 04:47:51;;;;;;;8.57;3.42;;;;;;;;;;5074698;28;20059;-47
2021/06/27 04:50:17;;;;;;;6.30;3.00;;;;;;;;;;5073950;28;20039;-47
2021/06/27 04:52:44;;;;;;;8.25;3.42;;;;;;;;;;5075126;28;20088;-47
2021/06/27 04:55:10;;;;;;;4.78;3.20;;;;;;;;;;5074451;28;20032;-47
2021/06/27 04:57:36;;;;;;;7.25;3.65;;;;;;;;;;5073617;28;20028;-48
2021/06/27 05:00:04;;;;;;;6.50;3.65;;;;;;;;;;5074434;28;20032;-47
2021/06/27 05:02:30;;;;;;;5.93;4.13;;;;;;;;;;5074597;28;20356;-47
2021/06/27 05:04:56;;;;;;;6.18;4.07;;;;;;;;;;5074334;28;20392;-47
2021/06/27 05:07:22;;;;;;;5.97;3.70;;;;;;;;;;5074860;28;20020;-47
2021/06/27 05:09:49;;;;;;;12.95;4.65;;;;;;;;;;5074225;28;20098;-47
2021/06/27 05:12:16;;;;;;;5.10;3.95;;;;;;;;;;5073730;28;20089;-48
2021/06/27 05:14:42;;;;;;;5.88;4.18;;;;;;;;;;5074415;28;20367;-47
2021/06/27 05:17:08;;;;;;;13.23;4.50;;;;;;;;;;5074004;28;20040;-47
2021/06/27 05:19:34;;;;;;;10.75;4.45;;;;;;;;;;5074112;28;20040;-47
2021/06/27 05:22:00;;;;;;;5.15;3.33;;;;;;;;;;5073876;28;20032;-48
2021/06/27 05:24:26;;;;;;;4.90;3.70;;;;;;;;;;5073908;28;20043;-47
2021/06/27 05:26:52;;;;;;;9.35;3.88;;;;;;;;;;5074680;28;20059;-47
2021/06/27 05:29:18;;;;;;;4.18;3.47;;;;;;;;;;5073737;28;20158;-47
2021/06/27 05:31:45;;;;;;;8.27;4.35;;;;;;;;;;5072937;28;20379;-47
2021/06/27 05:34:11;;;;;;;11.88;4.22;;;;;;;;;;5070913;28;20021;-47
2021/06/27 05:36:37;;;;;;;10.10;4.72;;;;;;;;;;5061118;28;20029;-48
2021/06/27 05:39:07;;;;;;;8.70;4.13;;;;;;;;;;5053454;28;20413;-47
2021/06/27 05:41:33;;;;;;;10.63;4.05;;;;;;;;;;5053014;28;20426;-47
2021/06/27 05:43:59;;;;;;;5.00;3.67;;;;;;;;;;5053688;28;20033;-48
2021/06/27 05:46:25;;;;;;;6.60;4.75;;;;;;;;;;5053689;28;20032;-47
2021/06/27 05:48:51;;;;;;;5.88;3.97;;;;;;;;;;5053804;28;20029;-47
2021/06/27 05:51:18;;;;;;;5.60;3.75;;;;;;;;;;5053083;28;20024;-47
2021/06/27 05:53:44;;;;;;;7.72;5.20;;;;;;;;;;5053642;28;20116;-47
2021/06/27 05:56:10;;;;;;;11.30;4.72;;;;;;;;;;5053587;28;20112;-47
2021/06/27 05:58:40;;;;;;;8.63;3.75;;;;;;;;;;5053167;28;20041;-47
2021/06/27 06:01:06;;;;;;;14.20;4.72;;;;;;;;;;5067471;28;20058;-47
2021/06/27 06:03:33;;;;;;;9.43;4.57;;;;;;;;;;5073197;28;20024;-47
2021/06/27 06:05:59;;;;;;;11.40;4.00;;;;;;;;;;5073717;28;20169;-47
2021/06/27 06:08:25;;;;;;;8.55;4.50;;;;;;;;;;5072779;28;20412;-47
2021/06/27 06:10:51;;;;;;;7.38;4.40;;;;;;;;;;5072779;28;20098;-47
2021/06/27 06:13:17;;;;;;;7.50;5.05;;;;;;;;;;5064468;28;20151;-47
2021/06/27 06:15:43;;;;;;;10.68;4.55;;;;;;;;;;5060405;28;20144;-48
2021/06/27 06:18:09;;;;;;;6.00;4.18;;;;;;;;;;5053439;28;20111;-47
2021/06/27 06:20:35;;;;;;;6.15;4.40;;;;;;;;;;5052136;28;20159;-48
2021/06/27 06:23:01;;;;;;;21.02;5.10;;;;;;;;;;5053235;28;20025;-48
2021/06/27 06:25:27;;;;;;;6.40;4.30;;;;;;;;;;5052920;28;20104;-47
2021/06/27 06:27:53;;;;;;;8.05;4.95;;;;;;;;;;5053127;28;20025;-47
2021/06/27 06:30:19;;;;;;;8.23;4.68;;;;;;;;;;5051714;28;20029;-47
2021/06/27 06:32:45;;;;;;;8.75;4.53;;;;;;;;;;5053022;28;20027;-51
2021/06/27 06:35:12;;;;;;;7.65;4.70;;;;;;;;;;5052911;28;20371;-48
2021/06/27 06:37:38;;;;;;;7.50;5.00;;;;;;;;;;5052824;28;20017;-48
2021/06/27 06:40:04;;;;;;;8.82;5.32;;;;;;;;;;5059589;28;20036;-48
2021/06/27 06:42:30;;;;;;;7.10;4.65;;;;;;;;;;5061414;28;20439;-48
2021/06/27 06:44:56;;;;;;;10.27;5.32;;;;;;;;;;5063165;28;20021;-48
2021/06/27 06:47:23;;;;;;;11.73;5.13;;;;;;;;;;5062057;28;20159;-48
2021/06/27 06:49:49;;;;;;;9.48;5.40;;;;;;;;;;5061896;28;20104;-48
2021/06/27 06:52:15;;;;;;;7.82;5.32;;;;;;;;;;5062840;28;20031;-48
2021/06/27 06:54:41;;;;;;;8.07;5.20;;;;;;;;;;5061567;28;20050;-48
2021/06/27 06:57:07;;;;;;;16.20;6.47;;;;;;;;;;5061797;28;20024;-48
2021/06/27 06:59:33;;;;;;;8.75;5.03;;;;;;;;;;5062994;28;20033;-48
2021/06/27 07:01:59;;;;;;;8.93;5.13;;;;;;;;;;5062836;28;20008;-48
2021/06/27 07:04:25;;;;;;;7.03;4.82;;;;;;;;;;5061904;28;20096;-48
2021/06/27 07:06:51;;;;;;;8.13;5.15;;;;;;;;;;5064261;28;20098;-49
2021/06/27 07:09:17;;;;;;;9.20;5.35;;;;;;;;;;5072567;28;20386;-48
2021/06/27 07:11:44;;;;;;;10.73;5.43;;;;;;;;;;5071438;28;20021;-48
2021/06/27 07:14:10;;;;;;;7.65;4.88;;;;;;;;;;5072546;28;20108;-48
2021/06/27 07:16:36;;;;;;;7.68;5.15;;;;;;;;;;5072719;28;20458;-48
2021/06/27 07:19:02;;;;;;;10.27;5.55;;;;;;;;;;5072471;28;20051;-50
2021/06/27 07:21:28;;;;;;;10.75;5.65;;;;;;;;;;5073683;28;20396;-49
2021/06/27 07:23:55;;;;;;;10.45;5.78;;;;;;;;;;5076711;28;20029;-48
2021/06/27 07:26:21;;;;;;;12.40;5.05;;;;;;;;;;5076396;28;20020;-53
2021/06/27 07:28:47;;;;;;;8.40;5.18;;;;;;;;;;5076117;28;20031;-49
2021/06/27 07:31:13;;;;;;;14.32;6.68;;;;;;;;;;5075578;28;20020;-48
2021/06/27 07:33:39;;;;;;;8.85;5.50;;;;;;;;;;5076511;28;20039;-48
2021/06/27 07:36:05;;;;;;;22.98;5.70;;;;;;;;;;5076357;28;20017;-47
2021/06/27 07:38:31;;;;;;;14.90;4.22;;;;;;;;;;5076157;28;20053;-47
2021/06/27 07:40:57;;;;;;;6.35;3.90;;;;;;;;;;5075330;28;20021;-47
2021/06/27 07:43:23;;;;;;;7.50;4.57;;;;;;;;;;5076123;28;20444;-47
2021/06/27 07:45:49;;;;;;;7.13;4.22;;;;;;;;;;5075998;28;20107;-47
2021/06/27 07:48:15;;;;;;;5.70;4.15;;;;;;;;;;5076062;28;20039;-47
2021/06/27 07:50:41;;;;;;;8.10;4.22;;;;;;;;;;5075348;28;20027;-47
2021/06/27 07:53:07;;;;;;;9.70;4.55;;;;;;;;;;5076101;28;20437;-47
2021/06/27 07:55:34;;;;;;;10.82;3.85;;;;;;;;;;5075620;28;20035;-49
2021/06/27 07:58:00;;;;;;;6.22;3.92;;;;;;;;;;5069542;28;20364;-49
2021/06/27 08:00:29;;;;;;;10.52;4.03;;;;;;;;;;5066363;28;20024;-48
2021/06/27 08:02:55;;;;;;;5.60;3.53;;;;;;;;;;5065064;28;20100;-48
2021/06/27 08:05:21;;;;;;;9.27;3.90;;;;;;;;;;5065282;28;20078;-49
2021/06/27 08:07:47;;;;;;;8.15;3.67;;;;;;;;;;5066119;28;20033;-48
2021/06/27 08:10:13;;;;;;;4.75;3.58;;;;;;;;;;5068548;28;20032;-48
2021/06/27 08:12:40;;;;;;;8.57;3.53;;;;;;;;;;5057803;28;20032;-49
2021/06/27 08:15:07;;;;;;;5.60;3.72;;;;;;;;;;5063541;28;20313;-49
2021/06/27 08:17:33;;;;;;;5.35;3.80;;;;;;;;;;5068035;28;20154;-48
2021/06/27 08:19:59;;;;;;;6.03;3.92;;;;;;;;;;5061495;28;20142;-48
2021/06/27 08:22:25;;;;;;;8.70;4.55;;;;;;;;;;5062460;28;20468;-49
2021/06/27 08:24:51;;;;;;;13.93;4.35;;;;;;;;;;5055282;28;20091;-48
2021/06/27 08:27:17;;;;;;;8.68;4.45;;;;;;;;;;5054757;28;20017;-48
2021/06/27 08:29:44;;;;;;;9.82;3.83;;;;;;;;;;5054808;28;20033;-48
2021/06/27 08:32:10;;;;;;;15.57;3.42;;;;;;;;;;5064502;28;20067;-49
2021/06/27 08:34:36;;;;;;;22.73;5.35;;;;;;;;;;5074040;28;20059;-48
2021/06/27 08:37:02;;;;;;;7.10;4.32;;;;;;;;;;5064324;28;20174;-49
2021/06/27 08:39:28;;;;;;;16.80;4.68;;;;;;;;;;5055016;28;20048;-49
2021/06/27 08:41:55;;;;;;;8.52;4.57;;;;;;;;;;5054178;28;20021;-48
2021/06/27 08:44:21;;;;;;;8.13;3.88;;;;;;;;;;5054926;28;20114;-48
2021/06/27 08:46:48;;;;;;;5.18;3.95;;;;;;;;;;5054471;28;20539;-48
2021/06/27 08:49:14;;;;;;;5.05;3.95;;;;;;;;;;5069110;28;20099;-48
2021/06/27 08:51:40;;;;;;;4.85;3.90;;;;;;;;;;5074112;28;20036;-48
2021/06/27 08:54:07;;;;;;;8.02;3.75;;;;;;;;;;5075038;28;20439;-49
2021/06/27 08:56:34;;;;;;;6.05;4.10;;;;;;;;;;5074672;28;20031;-49
2021/06/27 08:59:00;;;;;;;14.65;4.30;;;;;;;;;;5074303;28;20398;-49
2021/06/27 09:01:26;;;;;;;6.90;3.60;;;;;;;;;;5073436;28;20475;-49
2021/06/27 09:03:55;;;;;;;7.90;3.85;;;;;;;;;;5074728;28;20064;-49
2021/06/27 09:06:35;;;;;;;4.88;3.40;;;;;;;;;;5074569;28;20074;-49
2021/06/27 09:09:09;;;;;;;6.72;4.03;;;;;;;;;;5059569;28;20151;-49
2021/06/27 09:11:34;;;;;;;5.43;3.97;;;;;;;;;;5053456;28;20082;-49
2021/06/27 09:14:00;;;;;;;18.67;4.00;;;;;;;;;;5053102;28;20029;-49
2021/06/27 09:16:26;;;;;;;5.85;3.83;;;;;;;;;;5054304;28;20413;-49
2021/06/27 09:18:53;;;;;;;8.52;3.08;;;;;;;;;;5054403;28;20033;-50
2021/06/27 09:21:19;;;;;;;4.75;2.97;;;;;;;;;;5053460;28;20114;-49
2021/06/27 09:23:47;;;;;;;9.00;3.78;;;;;;;;;;5054215;28;20063;-49
2021/06/27 09:26:25;;;;;;;5.18;3.17;;;;;;;;;;5054305;28;20021;-49
2021/06/27 09:28:50;;;;;;;3.28;2.45;;;;;;;;;;5054223;28;20071;-49
2021/06/27 09:31:37;;;;;;;18.42;5.05;;;;;;;;;;5053389;28;20049;-50
2021/06/27 09:34:04;;;;;;;12.88;3.90;;;;;;;;;;5054187;28;20029;-52
2021/06/27 09:36:30;;;;;;;14.25;2.80;;;;;;;;;;5053817;28;20028;-50
2021/06/27 09:38:57;;;;;;;11.38;3.53;;;;;;;;;;5053870;28;20056;-50
2021/06/27 09:41:28;;;;;;;4.25;2.70;;;;;;;;;;5053368;28;20021;-50
2021/06/27 09:43:58;;;;;;;4.63;2.55;;;;;;;;;;5053362;28;20033;-50
2021/06/27 09:46:33;;;;;;;5.85;2.70;;;;;;;;;;5053249;28;20371;-50
2021/06/27 09:49:02;;;;;;;3.00;2.30;;;;;;;;;;5053716;28;20025;-50
2021/06/27 09:51:29;;;;;;;4.03;2.20;;;;;;;;;;5053106;28;20112;-50
2021/06/27 09:53:56;;;;;;;6.68;2.85;;;;;;;;;;5053681;28;20078;-50
2021/06/27 09:56:24;;;;;;;8.65;2.60;;;;;;;;;;5053658;28;20057;-50
2021/06/27 09:59:07;;;;;;;8.82;2.65;;;;;;;;;;5054819;28;20435;-50
2021/06/27 10:01:33;;;;;;;3.53;2.08;;;;;;;;;;5055596;28;20025;-50
2021/06/27 10:04:01;;;;;;;9.25;2.63;;;;;;;;;;5053621;28;20036;-50
2021/06/27 10:06:32;;;;;;;2.50;2.00;;;;;;;;;;5053079;28;20364;-50
2021/06/27 10:09:12;;;;;;;2.88;2.40;;;;;;;;;;5053606;28;20219;-50
2021/06/27 10:11:38;;;;;;;2.35;2.15;;;;;;;;;;5055247;28;20097;-50
2021/06/27 10:14:09;;;;;;;3.38;2.08;;;;;;;;;;5056247;28;20116;-50
2021/06/27 10:16:35;;;;;;;3.70;2.53;;;;;;;;;;5063548;28;20040;-50
2021/06/27 10:19:02;;;;;;;3.42;2.38;;;;;;;;;;5063918;28;20041;-50
2021/06/27 10:21:29;;;;;;;3.17;2.20;;;;;;;;;;5062716;28;20016;-50
2021/06/27 10:23:56;;;;;;;15.00;2.30;;;;;;;;;;5060646;28;20028;-50
2021/06/27 10:26:23;;;;;;;1.90;1.75;;;;;;;;;;5053076;28;20031;-50
2021/06/27 10:28:49;;;;;;;3.25;2.00;;;;;;;;;;5052997;28;20036;-50
2021/06/27 10:31:16;;;;;;;3.13;1.60;;;;;;;;;;5052461;28;20025;-50
2021/06/27 10:33:42;;;;;;;3.22;2.10;;;;;;;;;;5052873;28;20017;-50
2021/06/27 10:36:12;;;;;;;1.85;1.73;;;;;;;;;;5053319;28;20134;-51
2021/06/27 10:38:43;;;;;;;3.00;1.60;;;;;;;;;;5052796;28;20504;-50
2021/06/27 10:41:09;;;;;;;1.50;1.40;;;;;;;;;;5052507;28;20130;-50
2021/06/27 10:44:10;;;;;;;3.08;1.83;;;;;;;;;;5052935;28;20368;-50
2021/06/27 10:46:47;;;;;;;1.88;1.50;;;;;;;;;;5010791;28;20022;-50
2021/06/27 10:49:33;;;;;;;4.70;2.40;;;;;;;;;;5010575;28;20061;-50
2021/06/27 10:52:02;;;;;;;6.47;2.33;;;;;;;;;;5009742;28;20025;-50
2021/06/27 10:54:31;;;;;;;2.55;1.58;;;;;;;;;;5010551;28;20045;-50
2021/06/27 10:56:59;;;;;;;2.65;1.95;;;;;;;;;;5010007;28;20169;-50
2021/06/27 10:59:40;;;;;;;2.70;1.90;;;;;;;;;;5011133;28;20041;-50
2021/06/27 11:02:18;;;;;;;2.00;1.75;;;;;;;;;;5029305;28;20032;-50
2021/06/27 11:04:45;;;;;;;2.65;1.67;;;;;;;;;;5030195;28;20163;-50
2021/06/27 11:07:30;;;;;;;2.53;1.70;;;;;;;;;;5029815;28;20033;-50
2021/06/27 11:10:15;;;;;;;2.13;1.60;;;;;;;;;;5029832;28;20404;-50
2021/06/27 11:12:57;;;;;;;2.78;1.88;;;;;;;;;;5030331;28;20025;-51
2021/06/27 11:15:23;;;;;;;1.80;1.50;;;;;;;;;;5030036;28;20523;-50
2021/06/27 11:17:53;;;;;;;2.25;1.52;;;;;;;;;;5029820;28;20021;-50
2021/06/27 11:20:19;;;;;;;4.53;1.70;;;;;;;;;;5045388;28;20068;-50
2021/06/27 11:22:49;;;;;;;2.60;1.98;;;;;;;;;;5072700;28;20081;-50
2021/06/27 11:25:33;;;;;;;1.52;1.40;;;;;;;;;;5073148;28;20031;-50
2021/06/27 11:28:00;;;;;;;2.08;1.60;;;;;;;;;;5071617;28;20401;-50
2021/06/27 11:30:29;;;;;;;3.25;1.98;;;;;;;;;;5071410;28;20028;-51
2021/06/27 11:32:55;;;;;;;1.83;1.73;;;;;;;;;;5057994;28;20048;-50
2021/06/27 11:35:45;;;;;;;2.05;1.58;;;;;;;;;;5063839;28;20413;-50
2021/06/27 11:38:30;;;;;;;5.30;3.40;;;;;;;;;;5066667;28;20036;-50
2021/06/27 11:40:56;;;;;;;3.92;2.50;;;;;;;;;;5071848;28;20495;-50
2021/06/27 11:43:42;;;;;;;4.68;2.58;;;;;;;;;;5072308;28;20068;-50
2021/06/27 11:46:25;;;;;;;3.35;2.25;;;;;;;;;;5072229;28;20103;-50
2021/06/27 11:48:51;;;;;;;6.85;1.80;;;;;;;;;;5072049;28;20077;-50
2021/06/27 11:51:17;;;;;;;3.72;2.40;;;;;;;;;;5071853;28;20024;-50
2021/06/27 11:53:44;;;;;;;3.13;2.33;;;;;;;;;;5072544;28;20021;-50
2021/06/27 11:56:15;;;;;;;2.83;1.92;;;;;;;;;;5072070;28;20067;-51
2021/06/27 11:58:41;;;;;;;2.33;1.70;;;;;;;;;;5072201;28;20040;-50
2021/06/27 12:01:08;;;;;;;3.58;1.83;;;;;;;;;;5071484;28;20056;-50
2021/06/27 12:03:34;;;;;;;2.00;1.60;;;;;;;;;;5072272;28;20078;-50
2021/06/27 12:06:02;;;;;;;4.03;1.63;;;;;;;;;;5072041;28;20021;-50
2021/06/27 12:08:29;;;;;;;2.03;1.50;;;;;;;;;;5075397;28;20032;-50
2021/06/27 12:10:59;;;;;;;3.47;1.80;;;;;;;;;;5074928;28;20020;-50
2021/06/27 12:13:26;;;;;;;3.80;1.83;;;;;;;;;;5075912;28;20028;-51
2021/06/27 12:15:53;;;;;;;4.43;1.73;;;;;;;;;;5075197;28;20033;-51
2021/06/27 12:18:23;;;;;;;1.70;1.38;;;;;;;;;;5075122;28;20479;-50
2021/06/27 12:20:53;;;;;;;2.55;1.70;;;;;;;;;;5074427;28;20032;-51
2021/06/27 12:23:19;;;;;;;;;;;;;;;;;;5076104;28;20025;-51
2021/06/27 12:25:53;;;;;;;2.05;1.75;;;;;;;;;;5075453;28;20263;-51
2021/06/27 12:28:20;;;;;;;2.08;1.85;;;;;;;;;;5075410;28;20028;-50
2021/06/27 12:30:48;;;;;;;5.05;1.60;;;;;;;;;;5074594;28;20066;-50
2021/06/27 12:33:22;;;;;;;2.22;2.00;;;;;;;;;;5075019;28;20044;-51
2021/06/27 12:36:09;;;;;;;1.55;1.40;;;;;;;;;;5075334;28;20039;-51
2021/06/27 12:38:35;;;;;;;1.70;1.60;;;;;;;;;;5074695;28;20024;-50
2021/06/27 12:41:03;;;;;;;1.85;1.35;;;;;;;;;;5074542;28;20025;-50
2021/06/27 12:43:34;;;;;;;1.92;1.40;;;;;;;;;;5074901;28;20054;-51
2021/06/27 12:46:15;;;;;;;1.98;1.45;;;;;;;;;;5075305;28;20261;-51
2021/06/27 12:48:42;;;;;;;2.45;1.65;;;;;;;;;;5074765;28;20047;-50
2021/06/27 12:51:32;;;;;;;2.08;1.80;;;;;;;;;;5074309;28;20028;-51
2021/06/27 12:54:00;;;;;;;2.20;1.50;;;;;;;;;;5074528;28;20410;-50
2021/06/27 12:57:04;;;;;;;2.35;1.45;;;;;;;;;;5075227;28;20086;-50
2021/06/27 12:59:35;;;;;;;1.70;1.60;;;;;;;;;;5032100;28;20452;-51
2021/06/27 13:02:17;;;;;;;1.42;1.25;;;;;;;;;;5031361;28;20057;-51
2021/06/27 13:04:46;;;;;;;2.05;1.67;;;;;;;;;;5032034;28;20034;-50
2021/06/27 13:07:13;;;;;;;1.88;1.60;;;;;;;;;;5032229;28;20037;-50
2021/06/27 13:09:41;;;;;;;1.67;1.58;;;;;;;;;;5031735;28;20116;-51
2021/06/27 13:12:07;;;;;;;2.75;1.50;;;;;;;;;;5027088;28;20060;-50
2021/06/27 13:14:33;;;;;;;1.55;1.33;;;;;;;;;;5030683;28;20554;-50
2021/06/27 13:17:06;;;;;;;1.40;1.30;;;;;;;;;;5031748;28;20118;-51
2021/06/27 13:19:32;;;;;;;1.65;1.30;;;;;;;;;;5030173;28;20041;-51
2021/06/27 13:22:11;;;;;;;2.95;2.08;;;;;;;;;;5031160;28;20029;-50
2021/06/27 13:24:56;;;;;;;2.08;1.75;;;;;;;;;;5031855;28;20025;-50
2021/06/27 13:27:22;;;;;;;2.35;1.67;;;;;;;;;;5031317;28;20067;-51
2021/06/27 13:30:22;;;;;;;2.90;1.25;;;;;;;;;;5031655;28;20060;-51
2021/06/27 13:32:48;;;;;;;1.40;1.30;;;;;;;;;;4972660;28;20039;-51
2021/06/27 13:35:33;;;;;;;2.33;2.13;;;;;;;;;;4972752;28;20038;-51
2021/06/27 13:38:00;;;;;;;3.47;1.48;;;;;;;;;;4972257;28;20042;-51
2021/06/27 13:40:26;;;;;;;1.70;1.38;;;;;;;;;;4971759;28;20043;-51
2021/06/27 13:42:53;;;;;;;1.70;1.60;;;;;;;;;;4972780;28;20037;-51
2021/06/27 13:45:21;;;;;;;2.47;1.55;;;;;;;;;;4972788;28;20113;-50
2021/06/27 13:47:48;;;;;;;4.22;1.33;;;;;;;;;;4978897;28;20358;-51
2021/06/27 13:50:14;;;;;;;2.10;1.58;;;;;;;;;;4990712;28;20109;-50
2021/06/27 13:52:40;;;;;;;1.20;1.10;;;;;;;;;;4992220;28;20084;-50
2021/06/27 13:55:07;;;;;;;2.08;1.33;;;;;;;;;;4991927;28;20062;-50
2021/06/27 13:57:33;;;;;;;2.05;1.52;;;;;;;;;;4992234;28;20137;-50
2021/06/27 13:59:59;;;;;;;2.67;1.88;;;;;;;;;;4991530;28;20038;-50
2021/06/27 14:02:25;;;;;;;1.92;1.33;;;;;;;;;;4990922;28;20038;-50
2021/06/27 14:04:51;;;;;;;1.38;1.27;;;;;;;;;;4991557;28;20441;-50
2021/06/27 14:07:17;;;;;;;2.20;1.85;;;;;;;;;;4995321;28;20038;-50
2021/06/27 14:09:44;;;;;;;3.40;1.08;;;;;;;;;;5053211;28;20040;-51
2021/06/27 14:12:10;;;;;;;5.00;1.17;;;;;;;;;;5052748;28;20508;-51
2021/06/27 14:14:36;;;;;;;4.68;1.30;;;;;;;;;;5053373;28;20033;-50
2021/06/27 14:17:02;;;;;;;32.70;3.60;;;;;;;;;;5052162;28;20024;-50
2021/06/27 14:19:28;;;;;;;33.90;2.50;;;;;;;;;;5053118;28;20091;-51
2021/06/27 14:21:55;;;;;;;39.90;2.92;;;;;;;;;;5052037;28;20017;-51
2021/06/27 14:24:21;;;;;;;1.60;1.42;;;;;;;;;;5053549;28;20033;-50
2021/06/27 14:26:48;;;;;;;4.45;1.73;;;;;;;;;;5053365;28;20028;-51
2021/06/27 14:29:14;;;;;;;2.17;1.35;;;;;;;;;;5052899;28;20036;-51
2021/06/27 14:31:40;;;;;;;6.05;1.42;;;;;;;;;;5052119;28;20017;-50
2021/06/27 14:34:06;;;;;;;15.10;1.73;;;;;;;;;;5052962;28;20036;-51
2021/06/27 14:36:32;;;;;;;5.90;1.65;;;;;;;;;;5052886;28;20352;-51
2021/06/27 14:38:58;;;;;;;1.90;1.70;;;;;;;;;;5052838;28;20043;-50
2021/06/27 14:41:28;;;;;;;1.67;1.58;;;;;;;;;;5052038;28;20376;-51
2021/06/27 14:43:54;;;;;;;14.27;2.13;;;;;;;;;;5053268;28;20029;-51
2021/06/27 14:46:21;;;;;;;12.70;1.95;;;;;;;;;;5052918;28;20356;-51
2021/06/27 14:48:47;;;;;;;9.85;1.65;;;;;;;;;;5052631;28;20359;-52